createdAt,value
2022-10-18T00:00:24.981Z,99897.31
2022-10-18T00:02:26.812Z,99887.44
2022-10-18T00:04:28.488Z,99892.16
2022-10-18T00:06:30.242Z,99892.81
2022-10-18T00:08:31.898Z,99886.69
2022-10-18T00:10:33.601Z,99888.53
2022-10-18T00:12:35.896Z,99882.31
2022-10-18T00:14:37.665Z,99899.13
2022-10-18T00:16:39.608Z,99887.88
2022-10-18T00:18:41.629Z,99867.31
2022-10-18T00:20:43.325Z,99861.94
2022-10-18T00:22:45.106Z,99864.63
2022-10-18T00:24:46.814Z,99872.53
2022-10-18T00:26:48.592Z,99863.63
2022-10-18T00:28:52.261Z,99861.72
2022-10-18T00:30:54.075Z,99851.22
2022-10-18T00:32:55.810Z,99858.28
2022-10-18T00:34:57.560Z,99853.16
2022-10-18T00:36:59.340Z,99849.72
2022-10-18T00:39:02.142Z,99853.91
2022-10-18T00:41:04.538Z,99845.94
2022-10-18T00:43:06.234Z,99835.13
2022-10-18T00:45:22.172Z,99831.69
2022-10-18T00:47:23.946Z,99829.75
2022-10-18T00:49:28.693Z,99831.47
2022-10-18T00:51:46.938Z,99827.09
2022-10-18T00:53:49.100Z,99826.09
2022-10-18T00:55:50.805Z,99819.03
2022-10-18T00:57:52.469Z,99815.13
2022-10-18T00:59:54.181Z,99804.66
2022-10-18T01:01:55.913Z,99816.22
2022-10-18T01:03:57.739Z,99820.75
2022-10-18T01:05:59.503Z,99824.41
2022-10-18T01:08:20.221Z,99829.00
2022-10-18T01:10:34.373Z,99827.28
2022-10-18T01:12:58.891Z,99828.25
2022-10-18T01:15:10.723Z,99821.19
2022-10-18T01:17:18.423Z,99818.63
2022-10-18T01:19:31.901Z,99818.28
2022-10-18T01:21:36.269Z,99813.88
2022-10-18T01:23:56.662Z,99813.88
2022-10-18T01:26:13.199Z,99822.06
2022-10-18T01:28:30.586Z,99818.50
2022-10-18T01:30:34.889Z,99822.91
2022-10-18T01:32:50.760Z,99816.47
2022-10-18T01:34:52.922Z,99808.50
2022-10-18T01:36:55.135Z,99805.97
2022-10-18T01:38:57.991Z,99803.16
2022-10-18T01:40:59.830Z,99795.25
2022-10-18T01:43:02.023Z,99807.91
2022-10-18T01:45:04.048Z,99799.72
2022-10-18T01:47:06.020Z,99790.94
2022-10-18T01:49:07.772Z,99782.19
2022-10-18T01:51:09.435Z,99779.50
2022-10-18T01:53:27.770Z,99775.94
2022-10-18T01:55:37.959Z,99780.22
2022-10-18T01:57:50.476Z,99776.69
2022-10-18T01:59:58.325Z,99782.88
2022-10-18T02:02:21.022Z,99780.22
2022-10-18T02:04:30.141Z,99771.44
2022-10-18T02:06:34.639Z,99762.44
2022-10-18T02:08:42.812Z,99762.44
2022-10-18T02:10:48.720Z,99770.56
2022-10-18T02:12:50.430Z,99767.88
2022-10-18T02:14:52.201Z,99776.81
2022-10-18T02:16:57.447Z,99771.44
2022-10-18T02:19:00.998Z,99775.72
2022-10-18T02:21:03.699Z,99762.31
2022-10-18T02:23:07.216Z,99770.38
2022-10-18T02:25:10.706Z,99756.31
2022-10-18T02:27:12.753Z,99751.81
2022-10-18T02:29:14.404Z,99754.63
2022-10-18T02:31:19.484Z,99742.41
2022-10-18T02:33:33.406Z,99741.66
2022-10-18T02:35:41.296Z,99742.41
2022-10-18T02:37:43.032Z,99732.66
2022-10-18T02:39:46.741Z,99736.19
2022-10-18T02:41:48.452Z,99728.91
2022-10-18T02:43:50.308Z,99722.78
2022-10-18T02:45:52.045Z,99720.22
2022-10-18T02:47:53.786Z,99715.84
2022-10-18T02:49:55.441Z,99716.59
2022-10-18T02:51:57.174Z,99712.91
2022-10-18T02:53:58.937Z,99699.50
2022-10-18T02:56:00.628Z,99703.28
2022-10-18T02:58:02.299Z,99699.00
2022-10-18T03:00:07.501Z,99698.03
2022-10-18T03:02:09.278Z,99691.91
2022-10-18T03:04:11.123Z,99691.91
2022-10-18T03:06:12.789Z,99690.81
2022-10-18T03:08:14.551Z,99689.13
2022-10-18T03:10:16.231Z,99679.59
2022-10-18T03:12:17.888Z,99683.13
2022-10-18T03:14:19.695Z,99684.84
2022-10-18T03:16:21.436Z,99676.72
2022-10-18T03:18:23.108Z,99675.09
2022-10-18T03:20:24.771Z,99664.16
2022-10-18T03:22:26.496Z,99662.31
2022-10-18T03:24:28.170Z,99658.91
2022-10-18T03:26:29.839Z,99658.81
2022-10-18T03:28:31.557Z,99654.19
2022-10-18T03:30:33.266Z,99649.91
2022-10-18T03:32:35.136Z,99645.59
2022-10-18T03:34:37.068Z,99648.19
2022-10-18T03:36:38.910Z,99651.72
2022-10-18T03:38:40.639Z,99638.31
2022-10-18T03:40:42.312Z,99625.88
2022-10-18T03:42:43.982Z,99624.16
2022-10-18T03:44:45.797Z,99618.81
2022-10-18T03:46:47.529Z,99627.59
2022-10-18T03:48:49.248Z,99621.38
2022-10-18T03:50:50.923Z,99623.47
2022-10-18T03:52:52.601Z,99602.28
2022-10-18T03:54:54.318Z,99607.88
2022-10-18T03:56:56.038Z,99601.03
2022-10-18T03:58:57.712Z,99607.38
2022-10-18T04:00:59.482Z,99596.13
2022-10-18T04:03:01.313Z,99587.38
2022-10-18T04:05:03.071Z,99588.97
2022-10-18T04:07:04.825Z,99581.81
2022-10-18T04:09:09.404Z,99580.78
2022-10-18T04:11:11.981Z,99579.09
2022-10-18T04:13:13.630Z,99585.69
2022-10-18T04:15:15.321Z,99576.47
2022-10-18T04:17:17.085Z,99575.75
2022-10-18T04:19:19.132Z,99567.22
2022-10-18T04:21:21.087Z,99569.16
2022-10-18T04:23:22.869Z,99568.19
2022-10-18T04:25:24.817Z,99568.19
2022-10-18T04:27:26.557Z,99566.47
2022-10-18T04:29:28.191Z,99561.56
2022-10-18T04:31:29.961Z,99556.66
2022-10-18T04:33:31.752Z,99535.22
2022-10-18T04:35:33.537Z,99555.91
2022-10-18T04:37:35.423Z,99548.59
2022-10-18T04:39:37.116Z,99553.97
2022-10-18T04:41:38.802Z,99551.03
2022-10-18T04:43:40.472Z,99539.34
2022-10-18T04:45:42.284Z,99539.59
2022-10-18T04:47:43.922Z,99540.56
2022-10-18T04:49:45.621Z,99536.66
2022-10-18T04:51:47.303Z,99535.06
2022-10-18T04:53:49.000Z,99529.09
2022-10-18T04:55:50.865Z,99524.59
2022-10-18T04:57:52.986Z,99524.50
2022-10-18T04:59:54.676Z,99529.09
2022-10-18T05:01:56.546Z,99521.91
2022-10-18T05:03:58.938Z,99539.59
2022-10-18T05:06:02.761Z,99529.09
2022-10-18T05:08:05.544Z,99525.44
2022-10-18T05:10:07.617Z,99543.47
2022-10-18T05:12:09.344Z,99536.41
2022-10-18T05:14:11.043Z,99542.59
2022-10-18T05:16:12.735Z,99537.34
2022-10-18T05:18:14.470Z,99539.09
2022-10-18T05:20:16.273Z,99550.75
2022-10-18T05:22:18.123Z,99552.69
2022-10-18T05:24:21.928Z,99562.44
2022-10-18T05:26:25.922Z,99557.84
2022-10-18T05:28:39.707Z,99565.13
2022-10-18T05:30:42.227Z,99558.94
2022-10-18T05:32:43.924Z,99555.38
2022-10-18T05:34:45.609Z,99557.19
2022-10-18T05:36:47.449Z,99557.34
2022-10-18T05:38:49.126Z,99556.34
2022-10-18T05:40:50.896Z,99549.72
2022-10-18T05:42:52.683Z,99555.06
2022-10-18T05:44:54.403Z,99551.41
2022-10-18T05:46:56.125Z,99547.03
2022-10-18T05:48:57.811Z,99533.66
2022-10-18T05:50:59.864Z,99541.69
2022-10-18T05:53:12.073Z,99537.31
2022-10-18T05:55:20.094Z,99533.66
2022-10-18T05:57:21.735Z,99543.38
2022-10-18T05:59:23.440Z,99528.63
2022-10-18T06:01:25.060Z,99526.47
2022-10-18T06:03:26.898Z,99523.78
2022-10-18T06:05:28.568Z,99512.31
2022-10-18T06:07:30.566Z,99513.91
2022-10-18T06:09:32.543Z,99493.47
2022-10-18T06:11:34.215Z,99493.25
2022-10-18T06:13:40.229Z,99489.63
2022-10-18T06:15:41.897Z,99482.75
2022-10-18T06:17:43.548Z,99481.91
2022-10-18T06:19:45.172Z,99473.03
2022-10-18T06:21:46.796Z,99472.81
2022-10-18T06:23:52.634Z,99471.97
2022-10-18T06:25:54.562Z,99458.41
2022-10-18T06:27:56.229Z,99455.88
2022-10-18T06:29:57.871Z,99453.22
2022-10-18T06:31:59.572Z,99447.06
2022-10-18T06:34:01.220Z,99429.94
2022-10-18T06:36:04.978Z,99411.25
2022-10-18T06:38:06.690Z,99407.00
2022-10-18T06:40:08.925Z,99398.66
2022-10-18T06:42:10.736Z,99378.06
2022-10-18T06:44:12.418Z,99368.34
2022-10-18T06:46:14.164Z,99358.34
2022-10-18T06:48:16.316Z,99344.81
2022-10-18T06:50:18.044Z,99338.25
2022-10-18T06:52:19.653Z,99357.63
2022-10-18T06:54:21.338Z,99349.69
2022-10-18T06:56:23.058Z,99353.22
2022-10-18T06:58:24.722Z,99322.06
2022-10-18T07:00:26.379Z,99311.22
2022-10-18T07:02:28.030Z,99314.75
2022-10-18T07:04:29.674Z,99291.59
2022-10-18T07:06:31.365Z,99296.13
2022-10-18T07:08:33.151Z,99306.72
2022-10-18T07:10:34.868Z,99262.88
2022-10-18T07:12:36.520Z,99262.63
2022-10-18T07:14:38.117Z,99272.84
2022-10-18T07:16:39.808Z,99262.97
2022-10-18T07:18:43.193Z,99262.97
2022-10-18T07:20:44.848Z,99252.25
2022-10-18T07:22:46.452Z,99250.19
2022-10-18T07:24:48.078Z,99244.22
2022-10-18T07:26:49.715Z,99237.16
2022-10-18T07:29:02.090Z,99236.19
2022-10-18T07:31:07.723Z,99215.34
2022-10-18T07:33:09.331Z,99194.66
2022-10-18T07:37:13.599Z,99161.00
2022-10-18T07:39:16.033Z,99147.34
2022-10-18T07:41:17.771Z,99140.16
2022-10-18T07:43:19.359Z,99141.00
2022-10-18T07:45:20.969Z,99125.91
2022-10-18T07:47:22.671Z,99108.97
2022-10-18T07:49:24.421Z,99101.78
2022-10-18T07:51:26.295Z,99092.63
2022-10-18T07:53:28.588Z,99074.72
2022-10-18T07:55:30.281Z,99067.38
2022-10-18T07:57:32.149Z,99063.59
2022-10-18T07:59:33.934Z,99057.38
2022-10-18T08:01:35.721Z,99055.56
2022-10-18T08:03:37.833Z,99044.97
2022-10-18T08:05:39.508Z,99032.44
2022-10-18T08:07:41.203Z,99034.25
2022-10-18T08:09:42.987Z,99012.09
2022-10-18T08:11:44.651Z,98988.69
2022-10-18T08:13:46.477Z,98965.03
2022-10-18T08:15:48.279Z,98944.13
2022-10-18T08:17:49.918Z,98930.63
2022-10-18T08:20:04.742Z,98894.75
2022-10-18T08:22:13.224Z,98872.19
2022-10-18T08:24:14.947Z,98868.56
2022-10-18T08:26:18.172Z,98864.88
2022-10-18T08:28:19.833Z,98858.66
2022-10-18T08:30:21.495Z,98869.38
2022-10-18T08:32:23.159Z,98859.22
2022-10-18T08:34:24.906Z,98839.16
2022-10-18T08:36:26.666Z,98817.84
2022-10-18T08:38:32.208Z,98787.78
2022-10-18T08:40:33.982Z,98800.06
2022-10-18T08:42:45.366Z,98785.97
2022-10-18T08:44:48.161Z,98769.16
2022-10-18T08:47:11.163Z,98784.28
2022-10-18T08:49:27.078Z,98768.31
2022-10-18T08:51:43.766Z,98793.44
2022-10-18T08:54:26.128Z,98805.97
2022-10-18T08:56:27.751Z,98815.00
2022-10-18T08:58:32.984Z,98808.94
2022-10-18T09:00:34.658Z,98826.72
2022-10-18T09:02:36.305Z,98825.00
2022-10-18T09:04:50.858Z,98817.25
2022-10-18T09:06:59.113Z,98804.97
2022-10-18T09:09:11.377Z,98773.53
2022-10-18T09:11:34.375Z,98805.53
2022-10-18T09:13:48.732Z,98823.31
2022-10-18T09:16:02.918Z,98811.44
2022-10-18T09:18:33.388Z,98802.41
2022-10-18T09:21:39.344Z,98778.28
2022-10-18T09:23:50.815Z,98772.09
2022-10-18T09:25:58.612Z,98755.31
2022-10-18T09:28:15.073Z,98742.63
2022-10-18T09:30:48.690Z,98746.00
2022-10-18T09:33:08.651Z,98739.78
2022-10-18T09:35:30.048Z,98732.75
2022-10-18T09:37:32.891Z,98737.09
2022-10-18T09:39:36.897Z,98736.00
2022-10-18T09:41:42.453Z,98725.53
2022-10-18T09:43:49.594Z,98713.00
2022-10-18T09:45:51.351Z,98704.28
2022-10-18T09:48:14.768Z,98707.63
2022-10-18T09:50:30.050Z,98711.03
2022-10-18T09:52:37.503Z,98701.44
2022-10-18T09:55:00.081Z,98688.19
2022-10-18T09:57:01.609Z,98680.84
2022-10-18T09:59:03.465Z,98677.19
2022-10-18T10:01:05.329Z,98674.63
2022-10-18T10:03:12.800Z,98666.75
2022-10-18T10:05:14.601Z,98657.72
2022-10-18T10:07:25.794Z,98642.63
2022-10-18T10:09:29.821Z,98647.84
2022-10-18T10:11:38.837Z,98636.28
2022-10-18T10:13:40.510Z,98633.59
2022-10-18T10:15:46.481Z,98636.28
2022-10-18T10:18:17.556Z,98636.28
2022-10-18T10:20:25.111Z,98618.53
2022-10-18T10:22:28.188Z,98615.84
2022-10-18T10:24:39.133Z,98621.03
2022-10-18T10:26:40.804Z,98624.72
2022-10-18T10:28:42.654Z,98623.88
2022-10-18T10:30:44.443Z,98615.84
2022-10-18T10:32:47.596Z,98614.84
2022-10-18T10:34:49.813Z,98611.44
2022-10-18T10:36:53.032Z,98602.56
2022-10-18T10:39:07.487Z,98601.56
2022-10-18T10:41:19.551Z,98592.69
2022-10-18T10:43:38.040Z,98593.69
2022-10-18T10:46:03.239Z,98591.00
2022-10-18T10:48:13.837Z,98584.25
2022-10-18T10:50:26.092Z,98591.16
2022-10-18T10:52:28.535Z,98586.91
2022-10-18T10:54:31.483Z,98587.63
2022-10-18T10:56:36.895Z,98577.19
2022-10-18T10:58:39.138Z,98576.50
2022-10-18T11:00:44.431Z,98569.59
2022-10-18T11:02:59.206Z,98573.94
2022-10-18T11:05:21.704Z,98554.47
2022-10-18T11:07:23.296Z,98557.31
2022-10-18T11:09:44.470Z,98565.91
2022-10-18T11:11:53.134Z,98568.03
2022-10-18T11:14:21.124Z,98564.34
2022-10-18T11:16:28.067Z,98557.31
2022-10-18T11:18:30.534Z,98555.59
2022-10-18T11:20:43.036Z,98563.78
2022-10-18T11:22:56.069Z,98558.56
2022-10-18T11:24:57.710Z,98569.00
2022-10-18T11:27:06.790Z,98562.69
2022-10-18T11:29:15.288Z,98561.09
2022-10-18T11:31:45.140Z,98564.66
2022-10-18T11:34:09.671Z,98564.91
2022-10-18T11:36:19.557Z,98559.53
2022-10-18T11:38:37.256Z,98555.91
2022-10-18T11:41:04.139Z,98557.88
2022-10-18T11:43:30.131Z,98571.97
2022-10-18T11:45:54.577Z,98556.88
2022-10-18T11:48:17.647Z,98557.16
2022-10-18T11:50:28.171Z,98559.84
2022-10-18T11:52:36.611Z,98557.72
2022-10-18T11:55:01.467Z,98553.22
2022-10-18T11:57:35.905Z,98553.47
2022-10-18T11:59:51.237Z,98561.38
2022-10-18T12:02:43.656Z,98557.03
2022-10-18T12:05:05.923Z,98559.41
2022-10-18T12:07:12.640Z,98555.31
2022-10-18T12:09:16.728Z,98558.28
2022-10-18T12:11:21.604Z,98556.88
2022-10-18T12:13:59.651Z,98561.97
2022-10-18T12:16:03.603Z,98558.56
2022-10-18T12:18:11.769Z,98565.63
2022-10-18T12:20:21.296Z,98564.66
2022-10-18T12:22:47.650Z,98570.97
2022-10-18T12:24:49.284Z,98566.19
2022-10-18T12:26:52.244Z,98561.50
2022-10-18T12:28:58.979Z,98569.41
2022-10-18T12:31:08.375Z,98565.19
2022-10-18T12:33:27.908Z,98567.16
2022-10-18T12:35:31.363Z,98557.28
2022-10-18T12:37:54.476Z,98561.81
2022-10-18T12:40:11.161Z,98565.47
2022-10-18T12:42:31.081Z,98570.25
2022-10-18T12:44:35.988Z,98568.59
2022-10-18T12:46:45.529Z,98565.47
2022-10-18T12:49:10.972Z,98569.41
2022-10-18T12:51:13.477Z,98556.59
2022-10-18T12:53:18.564Z,98568.00
2022-10-18T12:55:20.108Z,98549.84
2022-10-18T12:57:24.666Z,98567.53
2022-10-18T12:59:26.235Z,98559.22
2022-10-18T13:01:28.000Z,98558.44
2022-10-18T13:03:51.269Z,98563.22
2022-10-18T13:05:54.528Z,98568.25
2022-10-18T13:08:14.407Z,98564.38
2022-10-18T13:10:18.974Z,98578.00
2022-10-18T13:12:20.587Z,98565.59
2022-10-18T13:14:34.070Z,98557.84
2022-10-18T13:16:58.866Z,98569.91
2022-10-18T13:19:20.742Z,98559.41
2022-10-18T13:21:23.834Z,98580.16
2022-10-18T13:23:38.215Z,98567.00
2022-10-18T13:25:40.109Z,98564.66
2022-10-18T13:27:51.978Z,98570.16
2022-10-18T13:30:15.385Z,98603.94
2022-10-18T13:32:38.272Z,98579.03
2022-10-18T13:34:40.010Z,98603.56
2022-10-18T13:36:41.740Z,98585.75
2022-10-18T13:38:55.136Z,98595.38
2022-10-18T13:41:10.715Z,98597.72
2022-10-18T13:43:52.435Z,98588.75
2022-10-18T13:45:54.972Z,98597.25
2022-10-18T13:47:56.812Z,98597.47
2022-10-18T13:50:11.059Z,98583.03
2022-10-18T13:52:46.920Z,98589.13
2022-10-18T13:54:48.474Z,98598.75
2022-10-18T13:57:08.439Z,98617.78
2022-10-18T13:59:21.666Z,98607.16
2022-10-18T14:01:42.651Z,98625.75
2022-10-18T14:04:14.789Z,98609.22
2022-10-18T14:06:40.654Z,98608.75
2022-10-18T14:08:45.608Z,98632.63
2022-10-18T14:11:18.980Z,98616.28
2022-10-18T14:13:22.743Z,98616.09
2022-10-18T14:15:29.195Z,98615.75
2022-10-18T14:17:49.421Z,98628.38
2022-10-18T14:19:55.070Z,98622.34
2022-10-18T14:22:16.963Z,98613.16
2022-10-18T14:24:25.268Z,98615.75
2022-10-18T14:26:27.085Z,98618.41
2022-10-18T14:28:47.985Z,98618.44
2022-10-18T14:31:05.641Z,98632.16
2022-10-18T14:33:40.147Z,98633.72
2022-10-18T14:35:43.298Z,98626.75
2022-10-18T14:37:46.763Z,98627.09
2022-10-18T14:39:48.470Z,98648.28
2022-10-18T14:41:51.814Z,98638.47
2022-10-18T14:43:54.538Z,98636.53
2022-10-18T14:45:56.257Z,98647.00
2022-10-18T14:48:27.515Z,98634.78
2022-10-18T14:50:30.703Z,98653.94
2022-10-18T14:52:35.682Z,98645.28
2022-10-18T14:54:37.829Z,98648.94
2022-10-18T14:56:40.011Z,98645.84
2022-10-18T14:58:41.674Z,98656.97
2022-10-18T15:00:46.362Z,98645.75
2022-10-18T15:02:50.170Z,98651.25
2022-10-18T15:05:08.690Z,98673.03
2022-10-18T15:07:15.073Z,98672.03
2022-10-18T15:09:20.467Z,98681.41
2022-10-18T15:11:22.951Z,98690.34
2022-10-18T15:13:24.732Z,98696.59
2022-10-18T15:15:28.529Z,98702.38
2022-10-18T15:17:31.770Z,98702.94
2022-10-18T15:19:35.400Z,98705.69
2022-10-18T15:21:37.070Z,98722.66
2022-10-18T15:23:38.977Z,98712.38
2022-10-18T15:25:40.609Z,98723.22
2022-10-18T15:27:47.079Z,98713.63
2022-10-18T15:29:48.804Z,98749.09
2022-10-18T15:31:50.592Z,98714.50
2022-10-18T15:33:53.154Z,98726.66
2022-10-18T15:35:54.999Z,98735.41
2022-10-18T15:37:58.106Z,98739.06
2022-10-18T15:40:21.589Z,98760.81
2022-10-18T15:42:38.263Z,98772.69
2022-10-18T15:44:50.917Z,98768.16
2022-10-18T15:46:57.322Z,98759.97
2022-10-18T15:49:46.843Z,98770.84
2022-10-18T15:51:49.147Z,98767.88
2022-10-18T15:53:54.375Z,98767.31
2022-10-18T15:56:10.626Z,98759.97
2022-10-18T15:58:23.898Z,98771.41
2022-10-18T16:00:27.884Z,98752.34
2022-10-18T16:02:29.714Z,98768.44
2022-10-18T16:04:32.392Z,98776.88
2022-10-18T16:06:34.087Z,98778.44
2022-10-18T16:08:40.777Z,98769.94
2022-10-18T16:10:42.517Z,98775.97
2022-10-18T16:12:44.244Z,98781.56
2022-10-18T16:14:45.913Z,98777.34
2022-10-18T16:16:48.847Z,98785.75
2022-10-18T16:18:50.679Z,98782.22
2022-10-18T16:20:52.464Z,98795.03
2022-10-18T16:22:54.130Z,98780.72
2022-10-18T16:24:55.784Z,98784.25
2022-10-18T16:26:57.530Z,98796.44
2022-10-18T16:28:59.812Z,98790.78
2022-10-18T16:31:01.994Z,98788.97
2022-10-18T16:33:03.760Z,98796.22
2022-10-18T16:35:05.837Z,98802.78
2022-10-18T16:37:07.603Z,98827.03
2022-10-18T16:39:16.973Z,98823.88
2022-10-18T16:41:18.815Z,98820.34
2022-10-18T16:43:20.569Z,98812.75
2022-10-18T16:45:22.241Z,98828.31
2022-10-18T16:47:24.040Z,98825.06
2022-10-18T16:49:26.202Z,98831.63
2022-10-18T16:51:28.125Z,98829.25
2022-10-18T16:53:29.810Z,98822.56
2022-10-18T16:55:31.542Z,98841.56
2022-10-18T16:57:33.296Z,98834.78
2022-10-18T16:59:36.542Z,98858.00
2022-10-18T17:01:38.254Z,98846.34
2022-10-18T17:03:40.218Z,98844.16
2022-10-18T17:05:42.214Z,98846.09
2022-10-18T17:07:45.318Z,98842.56
2022-10-18T17:09:47.054Z,98851.88
2022-10-18T17:11:48.676Z,98848.22
2022-10-18T17:13:51.017Z,98839.63
2022-10-18T17:15:52.783Z,98834.63
2022-10-18T17:17:54.659Z,98834.75
2022-10-18T17:19:57.484Z,98837.00
2022-10-18T17:22:02.562Z,98843.09
2022-10-18T17:24:04.734Z,98837.69
2022-10-18T17:26:21.870Z,98838.75
2022-10-18T17:28:28.310Z,98840.47
2022-10-18T17:30:30.078Z,98851.06
2022-10-18T17:32:31.906Z,98852.34
2022-10-18T17:34:34.193Z,98867.50
2022-10-18T17:36:36.222Z,98859.09
2022-10-18T17:38:37.966Z,98858.19
2022-10-18T17:40:43.456Z,98855.03
2022-10-18T17:42:45.327Z,98854.88
2022-10-18T17:44:47.236Z,98855.88
2022-10-18T17:46:49.237Z,98857.91
2022-10-18T17:48:50.972Z,98856.81
2022-10-18T17:50:52.663Z,98869.06
2022-10-18T17:52:55.688Z,98863.22
2022-10-18T17:54:57.552Z,98877.00
2022-10-18T17:56:59.278Z,98874.69
2022-10-18T17:59:01.449Z,98884.47
2022-10-18T18:01:17.633Z,98878.91
2022-10-18T18:03:19.374Z,98884.72
2022-10-18T18:05:21.315Z,98875.94
2022-10-18T18:07:22.981Z,98874.94
2022-10-18T18:09:24.765Z,98875.53
2022-10-18T18:11:26.521Z,98872.69
2022-10-18T18:13:28.216Z,98876.41
2022-10-18T18:15:29.821Z,98865.78
2022-10-18T18:17:34.355Z,98867.31
2022-10-18T18:19:41.788Z,98858.81
2022-10-18T18:21:43.530Z,98868.16
2022-10-18T18:23:45.313Z,98858.28
2022-10-18T18:25:56.135Z,98869.31
2022-10-18T18:27:58.137Z,98868.75
2022-10-18T18:29:59.927Z,98868.19
2022-10-18T18:32:01.775Z,98864.22
2022-10-18T18:34:03.623Z,98861.25
2022-10-18T18:36:05.713Z,98862.81
2022-10-18T18:38:07.454Z,98856.56
2022-10-18T18:40:09.336Z,98874.94
2022-10-18T18:42:11.730Z,98872.56
2022-10-18T18:44:13.509Z,98885.41
2022-10-18T18:46:15.158Z,98878.88
2022-10-18T18:48:19.862Z,98866.19
2022-10-18T18:50:21.819Z,98862.53
2022-10-18T18:52:23.618Z,98854.34
2022-10-18T18:54:25.303Z,98859.53
2022-10-18T18:56:27.287Z,98860.25
2022-10-18T18:58:29.017Z,98866.47
2022-10-18T19:00:30.690Z,98875.22
2022-10-18T19:02:32.413Z,98885.81
2022-10-18T19:04:34.231Z,98888.66
2022-10-18T19:06:40.725Z,98874.66
2022-10-18T19:08:42.663Z,98874.38
2022-10-18T19:10:44.373Z,98869.56
2022-10-18T19:12:45.997Z,98864.91
2022-10-18T19:14:47.736Z,98863.91
2022-10-18T19:16:50.296Z,98868.56
2022-10-18T19:18:53.294Z,98868.56
2022-10-18T19:20:54.993Z,98878.34
2022-10-18T19:22:56.685Z,98880.00
2022-10-18T19:24:58.474Z,98890.75
2022-10-18T19:27:07.488Z,98879.03
2022-10-18T19:29:42.585Z,98876.34
2022-10-18T19:31:44.360Z,98870.69
2022-10-18T19:33:48.529Z,98876.06
2022-10-18T19:36:00.481Z,98862.34
2022-10-18T19:38:02.162Z,98866.03
2022-10-18T19:40:04.224Z,98868.97
2022-10-18T19:42:11.249Z,98872.94
2022-10-18T19:44:13.058Z,98866.16
2022-10-18T19:46:14.828Z,98867.81
2022-10-18T19:48:16.578Z,98875.63
2022-10-18T19:50:18.342Z,98874.63
2022-10-18T19:52:20.144Z,98878.56
2022-10-18T19:54:21.817Z,98865.75
2022-10-18T19:56:24.803Z,98865.03
2022-10-18T19:58:26.725Z,98861.63
2022-10-18T20:00:28.514Z,98862.63
2022-10-18T20:02:30.677Z,98866.69
2022-10-18T20:04:34.278Z,98864.72
2022-10-18T20:06:36.782Z,98868.84
2022-10-18T20:08:38.660Z,98863.03
2022-10-18T20:10:40.503Z,98853.56
2022-10-18T20:12:42.226Z,98857.09
2022-10-18T20:14:43.915Z,98851.72
2022-10-18T20:16:45.614Z,98851.16
2022-10-18T20:18:47.337Z,98838.69
2022-10-18T20:20:49.129Z,98839.81
2022-10-18T20:22:50.809Z,98843.22
2022-10-18T20:24:52.532Z,98838.69
2022-10-18T20:26:54.210Z,98835.06
2022-10-18T20:28:57.012Z,98835.50
2022-10-18T20:31:12.122Z,98827.88
2022-10-18T20:33:13.939Z,98827.16
2022-10-18T20:35:15.777Z,98825.75
2022-10-18T20:37:17.537Z,98825.75
2022-10-18T20:39:19.287Z,98819.53
2022-10-18T20:41:28.475Z,98815.28
2022-10-18T20:43:30.249Z,98823.59
2022-10-18T20:45:32.029Z,98820.91
2022-10-18T20:47:34.864Z,98825.41
2022-10-18T20:49:36.853Z,98833.63
2022-10-18T20:51:38.499Z,98835.59
2022-10-18T20:53:40.419Z,98840.09
2022-10-18T20:55:42.116Z,98833.91
2022-10-18T20:57:44.063Z,98847.03
2022-10-18T20:59:45.901Z,98836.13
2022-10-18T21:01:47.678Z,98825.41
2022-10-18T21:03:50.195Z,98819.81
2022-10-18T21:05:51.884Z,98806.41
2022-10-18T21:07:53.727Z,98817.25
2022-10-18T21:09:55.513Z,98829.72
2022-10-18T21:11:57.681Z,98828.84
2022-10-18T21:14:00.268Z,98829.72
2022-10-18T21:16:02.350Z,98830.94
2022-10-18T21:18:04.143Z,98835.06
2022-10-18T21:20:06.652Z,98833.31
2022-10-18T21:22:08.499Z,98834.31
2022-10-18T21:24:10.739Z,98819.19
2022-10-18T21:26:16.521Z,98820.91
2022-10-18T21:28:18.465Z,98815.56
2022-10-18T21:30:20.306Z,98811.03
2022-10-18T21:32:21.999Z,98811.88
2022-10-18T21:34:23.757Z,98815.81
2022-10-18T21:36:26.027Z,98817.53
2022-10-18T21:38:27.705Z,98807.75
2022-10-18T21:40:29.451Z,98815.81
2022-10-18T21:42:31.397Z,98807.09
2022-10-18T21:44:33.307Z,98798.03
2022-10-18T21:46:35.127Z,98795.34
2022-10-18T21:48:37.232Z,98802.28
2022-10-18T21:50:39.141Z,98803.94
2022-10-18T21:52:40.880Z,98801.72
2022-10-18T21:54:42.562Z,98808.06
2022-10-18T21:56:44.590Z,98803.69
2022-10-18T21:58:46.419Z,98801.00
2022-10-18T22:00:48.280Z,98799.88
2022-10-18T22:03:05.126Z,98789.28
2022-10-18T22:05:09.840Z,98791.00
2022-10-18T22:07:13.890Z,98790.72
2022-10-18T22:09:15.766Z,98796.06
2022-10-18T22:11:18.523Z,98793.66
2022-10-18T22:13:20.294Z,98800.13
2022-10-18T22:15:21.974Z,98795.78
2022-10-18T22:17:23.729Z,98793.81
2022-10-18T22:19:25.457Z,98785.34
2022-10-18T22:21:27.522Z,98793.38
2022-10-18T22:23:35.882Z,98791.00
2022-10-18T22:25:37.669Z,98793.66
2022-10-18T22:27:39.357Z,98794.63
2022-10-18T22:29:41.163Z,98788.72
2022-10-18T22:31:46.525Z,98801.13
2022-10-18T22:33:53.118Z,98793.22
2022-10-18T22:35:54.838Z,98780.53
2022-10-18T22:37:56.555Z,98789.69
2022-10-18T22:39:58.333Z,98778.00
2022-10-18T22:42:00.002Z,98773.47
2022-10-18T22:44:03.571Z,98775.88
2022-10-18T22:46:07.752Z,98770.50
2022-10-18T22:48:09.482Z,98778.56
2022-10-18T22:50:11.210Z,98779.13
2022-10-18T22:52:12.898Z,98760.50
2022-10-18T22:54:14.673Z,98757.94
2022-10-18T22:56:17.622Z,98755.25
2022-10-18T22:58:19.483Z,98745.41
2022-10-18T23:00:21.242Z,98742.72
2022-10-18T23:02:23.003Z,98734.69
2022-10-18T23:04:24.738Z,98726.63
2022-10-18T23:06:34.138Z,98713.22
2022-10-18T23:08:35.857Z,98713.34
2022-10-18T23:10:41.286Z,98716.75
2022-10-18T23:12:43.112Z,98726.63
2022-10-18T23:14:44.973Z,98728.44
2022-10-18T23:16:46.694Z,98723.94
2022-10-18T23:18:55.486Z,98722.25
2022-10-18T23:21:04.090Z,98733.69
2022-10-18T23:23:05.801Z,98716.75
2022-10-18T23:25:08.041Z,98710.53
2022-10-18T23:27:09.741Z,98702.63
2022-10-18T23:29:11.440Z,98696.41
2022-10-18T23:31:21.374Z,98699.09
2022-10-18T23:33:23.099Z,98701.06
2022-10-18T23:35:24.783Z,98693.88
2022-10-18T23:37:26.460Z,98693.75
2022-10-18T23:39:28.107Z,98690.47
2022-10-18T23:41:30.034Z,98687.66
2022-10-18T23:43:32.084Z,98689.34
2022-10-18T23:45:33.896Z,98691.06
2022-10-18T23:47:35.890Z,98682.31
2022-10-18T23:49:37.763Z,98684.16
2022-10-18T23:51:39.477Z,98686.66
2022-10-18T23:53:41.112Z,98671.56
2022-10-18T23:55:52.370Z,98677.06
2022-10-18T23:57:54.026Z,98680.59
2022-10-18T23:59:55.793Z,98685.13
